sensor_id;sensor_type;location;lat;lon;timestamp;pressure;altitude;pressure_sealevel;temperature;humidity
163;BME280;3946;48.958;8.284;2024-01-15T00:01:51;99683.47;;;-1.83;100.00
163;BME280;3946;48.958;8.284;2024-01-15T00:04:37;99684.44;;;-1.88;100.00
163;BME280;3946;48.958;8.284;2024-01-15T00:07:22;99689.25;;;-1.78;100.00
163;BME280;3946;48.958;8.284;2024-01-15T00:10:08;99689.38;;;-1.82;100.00
163;BME280;3946;48.958;8.284;2024-01-15T00:12:53;99688.91;;;-1.98;100.00
163;BME280;3946;48.958;8.284;2024-01-15T00:15:39;99681.81;;;-1.85;100.00
163;BME280;3946;48.958;8.284;2024-01-15T00:18:26;99676.03;;;-1.90;100.00
163;BME280;3946;48.958;8.284;2024-01-15T00:21:11;99677.88;;;-1.97;100.00
163;BME280;3946;48.958;8.284;2024-01-15T00:23:56;99684.53;;;-1.93;100.00
163;BME280;3946;48.958;8.284;2024-01-15T00:26:41;99684.63;;;-1.96;100.00
163;BME280;3946;48.958;8.284;2024-01-15T00:29:27;99672.66;;;-1.91;100.00
163;BME280;3946;48.958;8.284;2024-01-15T00:32:12;99664.97;;;-1.88;100.00
163;BME280;3946;48.958;8.284;2024-01-15T00:34:59;99676.50;;;-1.76;100.00
163;BME280;3946;48.958;8.284;2024-01-15T00:37:44;99673.13;;;-1.77;100.00
163;BME280;3946;48.958;8.284;2024-01-15T00:40:29;99669.00;;;-1.79;100.00
163;BME280;3946;48.958;8.284;2024-01-15T00:43:18;99669.75;;;-1.77;100.00
163;BME280;3946;48.958;8.284;2024-01-15T00:46:04;99661.44;;;-1.82;100.00
163;BME280;3946;48.958;8.284;2024-01-15T00:48:50;99658.94;;;-1.84;100.00
163;BME280;3946;48.958;8.284;2024-01-15T00:51:36;99656.13;;;-1.73;100.00
163;BME280;3946;48.958;8.284;2024-01-15T00:54:22;99651.06;;;-1.73;100.00
163;BME280;3946;48.958;8.284;2024-01-15T00:57:07;99642.00;;;-1.83;100.00
163;BME280;3946;48.958;8.284;2024-01-15T00:59:52;99642.84;;;-1.83;100.00
163;BME280;3946;48.958;8.284;2024-01-15T01:02:38;99650.63;;;-1.90;100.00
163;BME280;3946;48.958;8.284;2024-01-15T01:05:23;99647.03;;;-1.80;100.00
163;BME280;3946;48.958;8.284;2024-01-15T01:08:10;99640.47;;;-1.90;100.00
163;BME280;3946;48.958;8.284;2024-01-15T01:10:55;99640.44;;;-1.89;100.00
163;BME280;3946;48.958;8.284;2024-01-15T01:13:41;99636.91;;;-1.82;100.00
163;BME280;3946;48.958;8.284;2024-01-15T01:16:26;99633.63;;;-1.87;100.00
163;BME280;3946;48.958;8.284;2024-01-15T01:19:11;99631.94;;;-1.86;100.00
163;BME280;3946;48.958;8.284;2024-01-15T01:21:57;99642.09;;;-1.86;100.00
163;BME280;3946;48.958;8.284;2024-01-15T01:24:43;99633.38;;;-1.78;100.00
163;BME280;3946;48.958;8.284;2024-01-15T01:27:28;99635.41;;;-1.90;100.00
163;BME280;3946;48.958;8.284;2024-01-15T01:30:14;99639.38;;;-1.79;100.00
163;BME280;3946;48.958;8.284;2024-01-15T01:33:03;99638.69;;;-1.85;100.00
163;BME280;3946;48.958;8.284;2024-01-15T01:35:48;99624.25;;;-1.83;100.00
163;BME280;3946;48.958;8.284;2024-01-15T01:38:34;99614.28;;;-1.91;100.00
163;BME280;3946;48.958;8.284;2024-01-15T01:41:20;99620.88;;;-1.84;100.00
163;BME280;3946;48.958;8.284;2024-01-15T01:44:08;99626.06;;;-1.88;100.00
163;BME280;3946;48.958;8.284;2024-01-15T01:46:53;99599.38;;;-2.04;100.00
163;BME280;3946;48.958;8.284;2024-01-15T01:49:39;99631.03;;;-1.84;100.00
163;BME280;3946;48.958;8.284;2024-01-15T01:52:24;99633.50;;;-1.81;100.00
163;BME280;3946;48.958;8.284;2024-01-15T01:55:10;99638.41;;;-1.74;100.00
163;BME280;3946;48.958;8.284;2024-01-15T01:57:57;99635.84;;;-1.74;100.00
163;BME280;3946;48.958;8.284;2024-01-15T02:00:43;99640.94;;;-1.74;100.00
163;BME280;3946;48.958;8.284;2024-01-15T02:03:29;99634.09;;;-1.71;100.00
163;BME280;3946;48.958;8.284;2024-01-15T02:06:15;99627.72;;;-1.55;100.00
163;BME280;3946;48.958;8.284;2024-01-15T02:09:01;99636.22;;;-1.56;100.00
163;BME280;3946;48.958;8.284;2024-01-15T02:11:47;99632.28;;;-1.66;100.00
163;BME280;3946;48.958;8.284;2024-01-15T02:14:33;99627.81;;;-1.58;100.00
163;BME280;3946;48.958;8.284;2024-01-15T02:17:18;99636.22;;;-1.56;100.00
163;BME280;3946;48.958;8.284;2024-01-15T02:20:05;99629.28;;;-1.49;100.00
163;BME280;3946;48.958;8.284;2024-01-15T02:22:50;99616.81;;;-1.58;100.00
163;BME280;3946;48.958;8.284;2024-01-15T02:25:37;99619.38;;;-1.60;100.00
163;BME280;3946;48.958;8.284;2024-01-15T02:28:23;99626.88;;;-1.54;100.00
163;BME280;3946;48.958;8.284;2024-01-15T02:31:08;99623.41;;;-1.51;100.00
163;BME280;3946;48.958;8.284;2024-01-15T02:33:53;99625.09;;;-1.50;100.00
163;BME280;3946;48.958;8.284;2024-01-15T02:36:39;99621.06;;;-1.59;100.00
163;BME280;3946;48.958;8.284;2024-01-15T02:39:24;99621.72;;;-1.51;100.00
163;BME280;3946;48.958;8.284;2024-01-15T02:42:11;99618.34;;;-1.51;100.00
163;BME280;3946;48.958;8.284;2024-01-15T02:44:56;99614.06;;;-1.49;100.00
163;BME280;3946;48.958;8.284;2024-01-15T02:47:42;99618.13;;;-1.44;100.00
163;BME280;3946;48.958;8.284;2024-01-15T02:50:27;99611.44;;;-1.46;100.00
163;BME280;3946;48.958;8.284;2024-01-15T02:53:12;99605.88;;;-1.60;100.00
163;BME280;3946;48.958;8.284;2024-01-15T02:55:58;99611.69;;;-1.57;100.00
163;BME280;3946;48.958;8.284;2024-01-15T02:58:44;99615.59;;;-1.45;100.00
163;BME280;3946;48.958;8.284;2024-01-15T03:01:30;99612.34;;;-1.49;100.00
163;BME280;3946;48.958;8.284;2024-01-15T03:04:15;99615.75;;;-1.50;100.00
163;BME280;3946;48.958;8.284;2024-01-15T03:07:04;99605.38;;;-1.42;100.00
163;BME280;3946;48.958;8.284;2024-01-15T03:09:49;99603.50;;;-1.35;100.00
163;BME280;3946;48.958;8.284;2024-01-15T03:12:34;99600.94;;;-1.34;100.00
163;BME280;3946;48.958;8.284;2024-01-15T03:15:21;99606.81;;;-1.32;100.00
163;BME280;3946;48.958;8.284;2024-01-15T03:18:06;99593.16;;;-1.29;100.00
163;BME280;3946;48.958;8.284;2024-01-15T03:20:51;99606.06;;;-1.35;100.00
163;BME280;3946;48.958;8.284;2024-01-15T03:23:37;99594.31;;;-1.39;100.00
163;BME280;3946;48.958;8.284;2024-01-15T03:26:22;99596.59;;;-1.30;100.00
163;BME280;3946;48.958;8.284;2024-01-15T03:29:07;99596.69;;;-1.33;100.00
163;BME280;3946;48.958;8.284;2024-01-15T03:31:54;99594.81;;;-1.28;100.00
163;BME280;3946;48.958;8.284;2024-01-15T03:34:39;99593.38;;;-1.37;100.00
163;BME280;3946;48.958;8.284;2024-01-15T03:37:25;99590.78;;;-1.34;100.00
163;BME280;3946;48.958;8.284;2024-01-15T03:40:11;99586.44;;;-1.30;100.00
163;BME280;3946;48.958;8.284;2024-01-15T03:42:56;99589.84;;;-1.31;100.00
163;BME280;3946;48.958;8.284;2024-01-15T03:45:41;99580.38;;;-1.26;100.00
163;BME280;3946;48.958;8.284;2024-01-15T03:48:28;99585.41;;;-1.25;100.00
163;BME280;3946;48.958;8.284;2024-01-15T03:51:15;99588.06;;;-1.29;100.00
163;BME280;3946;48.958;8.284;2024-01-15T03:54:02;99578.75;;;-1.29;100.00
163;BME280;3946;48.958;8.284;2024-01-15T03:56:48;99571.13;;;-1.29;100.00
163;BME280;3946;48.958;8.284;2024-01-15T03:59:33;99570.88;;;-1.20;100.00
163;BME280;3946;48.958;8.284;2024-01-15T04:02:18;99569.31;;;-1.24;100.00
163;BME280;3946;48.958;8.284;2024-01-15T04:05:06;99564.22;;;-1.24;100.00
163;BME280;3946;48.958;8.284;2024-01-15T04:07:51;99565.88;;;-1.23;100.00
163;BME280;3946;48.958;8.284;2024-01-15T04:10:36;99551.78;;;-1.33;100.00
163;BME280;3946;48.958;8.284;2024-01-15T04:13:22;99553.41;;;-1.30;100.00
163;BME280;3946;48.958;8.284;2024-01-15T04:16:07;99542.94;;;-1.20;100.00
163;BME280;3946;48.958;8.284;2024-01-15T04:18:52;99546.56;;;-1.28;100.00
163;BME280;3946;48.958;8.284;2024-01-15T04:21:39;99544.41;;;-1.13;100.00
163;BME280;3946;48.958;8.284;2024-01-15T04:24:25;99548.97;;;-1.24;100.00
163;BME280;3946;48.958;8.284;2024-01-15T04:27:10;99531.09;;;-1.21;100.00
163;BME280;3946;48.958;8.284;2024-01-15T04:29:55;99534.34;;;-1.16;100.00
163;BME280;3946;48.958;8.284;2024-01-15T04:32:41;99534.31;;;-1.14;100.00
163;BME280;3946;48.958;8.284;2024-01-15T04:35:26;99543.91;;;-1.24;100.00
163;BME280;3946;48.958;8.284;2024-01-15T04:38:13;99549.75;;;-1.22;100.00
163;BME280;3946;48.958;8.284;2024-01-15T04:40:58;99550.50;;;-1.18;100.00
163;BME280;3946;48.958;8.284;2024-01-15T04:43:44;99551.19;;;-1.13;100.00
163;BME280;3946;48.958;8.284;2024-01-15T04:46:29;99542.84;;;-1.17;100.00
163;BME280;3946;48.958;8.284;2024-01-15T04:49:14;99547.25;;;-1.23;100.00
163;BME280;3946;48.958;8.284;2024-01-15T04:52:00;99558.09;;;-1.17;100.00
163;BME280;3946;48.958;8.284;2024-01-15T04:54:46;99543.81;;;-1.21;100.00
163;BME280;3946;48.958;8.284;2024-01-15T04:57:32;99541.28;;;-1.21;100.00
163;BME280;3946;48.958;8.284;2024-01-15T05:00:17;99539.53;;;-1.19;100.00
163;BME280;3946;48.958;8.284;2024-01-15T05:03:04;99525.91;;;-1.16;100.00
163;BME280;3946;48.958;8.284;2024-01-15T05:05:49;99526.56;;;-1.11;100.00
163;BME280;3946;48.958;8.284;2024-01-15T05:08:35;99524.19;;;-1.16;100.00
163;BME280;3946;48.958;8.284;2024-01-15T05:11:21;99523.94;;;-1.08;100.00
163;BME280;3946;48.958;8.284;2024-01-15T05:14:07;99517.41;;;-1.15;100.00
163;BME280;3946;48.958;8.284;2024-01-15T05:16:52;99512.16;;;-1.11;100.00
163;BME280;3946;48.958;8.284;2024-01-15T05:19:37;99505.69;;;-1.21;100.00
163;BME280;3946;48.958;8.284;2024-01-15T05:22:23;99493.66;;;-1.14;100.00
163;BME280;3946;48.958;8.284;2024-01-15T05:25:08;99498.63;;;-1.11;100.00
163;BME280;3946;48.958;8.284;2024-01-15T05:27:55;99503.66;;;-1.10;100.00
163;BME280;3946;48.958;8.284;2024-01-15T05:30:40;99492.56;;;-1.07;100.00
163;BME280;3946;48.958;8.284;2024-01-15T05:33:26;99483.19;;;-1.05;100.00
163;BME280;3946;48.958;8.284;2024-01-15T05:36:11;99503.69;;;-1.11;100.00
163;BME280;3946;48.958;8.284;2024-01-15T05:38:56;99489.91;;;-1.02;100.00
163;BME280;3946;48.958;8.284;2024-01-15T05:41:42;99502.91;;;-1.13;100.00
163;BME280;3946;48.958;8.284;2024-01-15T05:44:28;99498.41;;;-1.03;100.00
163;BME280;3946;48.958;8.284;2024-01-15T05:47:14;99488.50;;;-1.13;100.00
163;BME280;3946;48.958;8.284;2024-01-15T05:50:00;99484.16;;;-1.09;100.00
163;BME280;3946;48.958;8.284;2024-01-15T05:52:46;99468.13;;;-1.11;100.00
163;BME280;3946;48.958;8.284;2024-01-15T05:55:31;99461.59;;;-1.18;100.00
163;BME280;3946;48.958;8.284;2024-01-15T05:58:17;99454.25;;;-1.29;100.00
163;BME280;3946;48.958;8.284;2024-01-15T06:01:03;99440.72;;;-1.29;100.00
163;BME280;3946;48.958;8.284;2024-01-15T06:03:49;99424.53;;;-1.25;100.00
163;BME280;3946;48.958;8.284;2024-01-15T06:06:34;99425.19;;;-1.19;100.00
163;BME280;3946;48.958;8.284;2024-01-15T06:09:20;99428.53;;;-1.18;100.00
163;BME280;3946;48.958;8.284;2024-01-15T06:12:07;99433.38;;;-1.11;100.00
163;BME280;3946;48.958;8.284;2024-01-15T06:14:53;99429.28;;;-1.15;100.00
163;BME280;3946;48.958;8.284;2024-01-15T06:17:39;99432.50;;;-1.10;100.00
163;BME280;3946;48.958;8.284;2024-01-15T06:20:25;99450.44;;;-1.14;100.00
163;BME280;3946;48.958;8.284;2024-01-15T06:23:10;99451.41;;;-1.18;100.00
163;BME280;3946;48.958;8.284;2024-01-15T06:25:55;99455.28;;;-1.07;100.00
163;BME280;3946;48.958;8.284;2024-01-15T06:28:41;99461.91;;;-1.01;100.00
163;BME280;3946;48.958;8.284;2024-01-15T06:31:26;99460.97;;;-0.98;100.00
163;BME280;3946;48.958;8.284;2024-01-15T06:34:15;99459.13;;;-1.21;100.00
163;BME280;3946;48.958;8.284;2024-01-15T06:37:00;99462.31;;;-1.15;100.00
163;BME280;3946;48.958;8.284;2024-01-15T06:39:45;99456.91;;;-1.04;100.00
163;BME280;3946;48.958;8.284;2024-01-15T06:42:31;99457.16;;;-1.13;100.00
163;BME280;3946;48.958;8.284;2024-01-15T06:45:16;99473.84;;;-1.04;100.00
163;BME280;3946;48.958;8.284;2024-01-15T06:48:01;99466.63;;;-0.90;100.00
163;BME280;3946;48.958;8.284;2024-01-15T06:50:48;99473.44;;;-0.91;100.00
163;BME280;3946;48.958;8.284;2024-01-15T06:53:33;99471.50;;;-0.83;100.00
163;BME280;3946;48.958;8.284;2024-01-15T06:56:18;99454.94;;;-0.96;100.00
163;BME280;3946;48.958;8.284;2024-01-15T06:59:04;99461.72;;;-0.96;100.00
163;BME280;3946;48.958;8.284;2024-01-15T07:01:49;99472.72;;;-0.96;100.00
163;BME280;3946;48.958;8.284;2024-01-15T07:04:34;99464.97;;;-0.91;100.00
163;BME280;3946;48.958;8.284;2024-01-15T07:07:21;99446.69;;;-1.02;100.00
163;BME280;3946;48.958;8.284;2024-01-15T07:10:07;99481.16;;;-0.94;100.00
163;BME280;3946;48.958;8.284;2024-01-15T07:12:52;99479.00;;;-0.80;100.00
163;BME280;3946;48.958;8.284;2024-01-15T07:15:38;99475.97;;;-0.91;100.00
163;BME280;3946;48.958;8.284;2024-01-15T07:18:23;99483.56;;;-0.89;100.00
163;BME280;3946;48.958;8.284;2024-01-15T07:21:09;99487.94;;;-0.94;100.00
163;BME280;3946;48.958;8.284;2024-01-15T07:23:56;99484.38;;;-0.89;100.00
163;BME280;3946;48.958;8.284;2024-01-15T07:26:41;99477.63;;;-0.90;100.00
163;BME280;3946;48.958;8.284;2024-01-15T07:29:27;99473.53;;;-0.94;100.00
163;BME280;3946;48.958;8.284;2024-01-15T07:32:12;99503.75;;;-0.85;100.00
163;BME280;3946;48.958;8.284;2024-01-15T07:34:58;99491.09;;;-0.86;100.00
163;BME280;3946;48.958;8.284;2024-01-15T07:37:43;99488.25;;;-0.77;100.00
163;BME280;3946;48.958;8.284;2024-01-15T07:40:30;99489.81;;;-0.73;100.00
163;BME280;3946;48.958;8.284;2024-01-15T07:43:15;99482.22;;;-0.75;100.00
163;BME280;3946;48.958;8.284;2024-01-15T07:46:00;99488.16;;;-0.74;100.00
163;BME280;3946;48.958;8.284;2024-01-15T07:48:46;99490.69;;;-0.74;100.00
163;BME280;3946;48.958;8.284;2024-01-15T07:51:32;99484.72;;;-0.73;100.00
163;BME280;3946;48.958;8.284;2024-01-15T07:54:17;99487.28;;;-0.73;100.00
163;BME280;3946;48.958;8.284;2024-01-15T07:57:04;99487.22;;;-0.72;100.00
163;BME280;3946;48.958;8.284;2024-01-15T07:59:50;99480.88;;;-0.58;100.00
163;BME280;3946;48.958;8.284;2024-01-15T08:02:35;99483.50;;;-0.61;100.00
163;BME280;3946;48.958;8.284;2024-01-15T08:05:20;99485.53;;;-0.46;100.00
163;BME280;3946;48.958;8.284;2024-01-15T08:08:06;99480.34;;;-0.43;100.00
163;BME280;3946;48.958;8.284;2024-01-15T08:10:51;99477.06;;;-0.47;100.00
163;BME280;3946;48.958;8.284;2024-01-15T08:13:38;99479.09;;;-0.56;100.00
163;BME280;3946;48.958;8.284;2024-01-15T08:16:23;99471.25;;;-0.49;100.00
163;BME280;3946;48.958;8.284;2024-01-15T08:19:09;99471.94;;;-0.45;100.00
163;BME280;3946;48.958;8.284;2024-01-15T08:21:54;99467.16;;;-0.54;100.00
163;BME280;3946;48.958;8.284;2024-01-15T08:24:40;99476.38;;;-0.50;100.00
163;BME280;3946;48.958;8.284;2024-01-15T08:27:25;99465.50;;;-0.30;100.00
163;BME280;3946;48.958;8.284;2024-01-15T08:30:12;99448.81;;;-0.38;100.00
163;BME280;3946;48.958;8.284;2024-01-15T08:32:58;99446.22;;;-0.36;100.00
163;BME280;3946;48.958;8.284;2024-01-15T08:35:44;99440.75;;;-0.25;100.00
163;BME280;3946;48.958;8.284;2024-01-15T08:38:29;99438.47;;;-0.33;100.00
163;BME280;3946;48.958;8.284;2024-01-15T08:41:14;99438.97;;;-0.23;100.00
163;BME280;3946;48.958;8.284;2024-01-15T08:44:00;99423.03;;;-0.28;100.00
163;BME280;3946;48.958;8.284;2024-01-15T08:46:46;99440.84;;;-0.04;100.00
163;BME280;3946;48.958;8.284;2024-01-15T08:49:32;99442.06;;;-0.15;100.00
163;BME280;3946;48.958;8.284;2024-01-15T08:52:17;99434.72;;;0.00;100.00
163;BME280;3946;48.958;8.284;2024-01-15T08:55:03;99444.75;;;0.05;100.00
163;BME280;3946;48.958;8.284;2024-01-15T08:57:49;99445.00;;;-0.01;100.00
163;BME280;3946;48.958;8.284;2024-01-15T09:00:34;99449.53;;;0.14;100.00
163;BME280;3946;48.958;8.284;2024-01-15T09:03:21;99440.72;;;0.23;100.00
163;BME280;3946;48.958;8.284;2024-01-15T09:06:06;99442.69;;;0.16;100.00
163;BME280;3946;48.958;8.284;2024-01-15T09:08:55;99441.13;;;0.12;100.00
163;BME280;3946;48.958;8.284;2024-01-15T09:11:41;99432.50;;;0.16;100.00
163;BME280;3946;48.958;8.284;2024-01-15T09:14:26;99440.81;;;0.20;100.00
163;BME280;3946;48.958;8.284;2024-01-15T09:17:12;99437.28;;;0.24;100.00
163;BME280;3946;48.958;8.284;2024-01-15T09:19:59;99438.78;;;0.29;100.00
163;BME280;3946;48.958;8.284;2024-01-15T09:22:44;99431.78;;;0.34;100.00
163;BME280;3946;48.958;8.284;2024-01-15T09:25:30;99425.72;;;0.39;100.00
163;BME280;3946;48.958;8.284;2024-01-15T09:28:15;99416.97;;;0.46;100.00
163;BME280;3946;48.958;8.284;2024-01-15T09:31:00;99431.94;;;0.53;100.00
163;BME280;3946;48.958;8.284;2024-01-15T09:33:46;99431.47;;;0.65;100.00
163;BME280;3946;48.958;8.284;2024-01-15T09:36:32;99428.50;;;0.54;100.00
163;BME280;3946;48.958;8.284;2024-01-15T09:39:24;99426.25;;;0.68;100.00
163;BME280;3946;48.958;8.284;2024-01-15T09:42:10;99431.13;;;0.53;100.00
163;BME280;3946;48.958;8.284;2024-01-15T09:44:56;99425.13;;;0.54;100.00
163;BME280;3946;48.958;8.284;2024-01-15T09:47:41;99424.81;;;0.63;100.00
163;BME280;3946;48.958;8.284;2024-01-15T09:50:27;99424.03;;;0.61;100.00
163;BME280;3946;48.958;8.284;2024-01-15T09:53:14;99417.22;;;0.61;100.00
163;BME280;3946;48.958;8.284;2024-01-15T09:56:00;99406.34;;;0.56;100.00
163;BME280;3946;48.958;8.284;2024-01-15T09:58:46;99408.84;;;0.58;100.00
163;BME280;3946;48.958;8.284;2024-01-15T10:01:34;99397.47;;;0.45;100.00
163;BME280;3946;48.958;8.284;2024-01-15T10:04:21;99395.44;;;0.31;100.00
163;BME280;3946;48.958;8.284;2024-01-15T10:07:08;99385.91;;;0.58;100.00
163;BME280;3946;48.958;8.284;2024-01-15T10:09:55;99392.94;;;0.51;100.00
163;BME280;3946;48.958;8.284;2024-01-15T10:12:42;99389.94;;;0.63;100.00
163;BME280;3946;48.958;8.284;2024-01-15T10:15:28;99379.03;;;0.60;100.00
163;BME280;3946;48.958;8.284;2024-01-15T10:18:13;99375.72;;;0.58;100.00
163;BME280;3946;48.958;8.284;2024-01-15T10:20:59;99371.56;;;0.55;100.00
163;BME280;3946;48.958;8.284;2024-01-15T10:23:44;99370.06;;;0.50;100.00
163;BME280;3946;48.958;8.284;2024-01-15T10:26:32;99374.13;;;0.55;100.00
163;BME280;3946;48.958;8.284;2024-01-15T10:29:17;99379.38;;;0.51;100.00
163;BME280;3946;48.958;8.284;2024-01-15T10:32:03;99382.47;;;0.59;100.00
163;BME280;3946;48.958;8.284;2024-01-15T10:34:52;99380.88;;;0.56;100.00
163;BME280;3946;48.958;8.284;2024-01-15T10:37:37;99381.34;;;0.44;100.00
163;BME280;3946;48.958;8.284;2024-01-15T10:40:23;99371.56;;;0.55;100.00
163;BME280;3946;48.958;8.284;2024-01-15T10:43:09;99381.63;;;0.58;100.00
163;BME280;3946;48.958;8.284;2024-01-15T10:45:54;99376.09;;;0.49;100.00
163;BME280;3946;48.958;8.284;2024-01-15T10:48:40;99363.50;;;0.44;100.00
163;BME280;3946;48.958;8.284;2024-01-15T10:51:25;99371.88;;;0.48;100.00
163;BME280;3946;48.958;8.284;2024-01-15T10:54:11;99367.13;;;0.39;100.00
163;BME280;3946;48.958;8.284;2024-01-15T10:56:58;99375.75;;;0.34;100.00
163;BME280;3946;48.958;8.284;2024-01-15T10:59:45;99370.03;;;0.29;100.00
163;BME280;3946;48.958;8.284;2024-01-15T11:02:31;99362.69;;;0.44;100.00
163;BME280;3946;48.958;8.284;2024-01-15T11:05:17;99360.72;;;0.50;100.00
163;BME280;3946;48.958;8.284;2024-01-15T11:08:06;99352.09;;;0.32;100.00
163;BME280;3946;48.958;8.284;2024-01-15T11:10:52;99357.28;;;0.29;100.00
163;BME280;3946;48.958;8.284;2024-01-15T11:13:41;99356.28;;;0.55;100.00
163;BME280;3946;48.958;8.284;2024-01-15T11:16:53;99365.47;;;0.59;100.00
163;BME280;3946;48.958;8.284;2024-01-15T11:19:43;99361.44;;;0.54;100.00
163;BME280;3946;48.958;8.284;2024-01-15T11:22:47;99358.53;;;0.41;100.00
163;BME280;3946;48.958;8.284;2024-01-15T11:25:35;99357.81;;;0.59;100.00
163;BME280;3946;48.958;8.284;2024-01-15T11:32:00;99371.84;;;0.69;100.00
163;BME280;3946;48.958;8.284;2024-01-15T11:34:53;99367.00;;;0.63;100.00
163;BME280;3946;48.958;8.284;2024-01-15T11:37:57;99364.88;;;0.53;100.00
163;BME280;3946;48.958;8.284;2024-01-15T11:40:42;99365.94;;;0.47;100.00
163;BME280;3946;48.958;8.284;2024-01-15T11:43:34;99376.00;;;0.50;100.00
163;BME280;3946;48.958;8.284;2024-01-15T11:46:20;99377.66;;;0.51;100.00
163;BME280;3946;48.958;8.284;2024-01-15T11:49:07;99386.28;;;0.49;100.00
163;BME280;3946;48.958;8.284;2024-01-15T11:51:58;99390.91;;;0.61;100.00
163;BME280;3946;48.958;8.284;2024-01-15T11:54:49;99377.91;;;0.67;100.00
163;BME280;3946;48.958;8.284;2024-01-15T11:57:41;99391.13;;;0.77;100.00
163;BME280;3946;48.958;8.284;2024-01-15T12:00:28;99393.25;;;0.87;100.00
163;BME280;3946;48.958;8.284;2024-01-15T12:03:13;99393.56;;;1.00;100.00
163;BME280;3946;48.958;8.284;2024-01-15T12:06:00;99391.00;;;0.80;100.00
163;BME280;3946;48.958;8.284;2024-01-15T12:08:45;99386.47;;;0.86;100.00
163;BME280;3946;48.958;8.284;2024-01-15T12:11:31;99384.19;;;0.80;100.00
163;BME280;3946;48.958;8.284;2024-01-15T12:14:18;99374.06;;;0.79;100.00
163;BME280;3946;48.958;8.284;2024-01-15T12:17:04;99385.75;;;0.83;100.00
163;BME280;3946;48.958;8.284;2024-01-15T12:19:49;99381.38;;;0.86;100.00
163;BME280;3946;48.958;8.284;2024-01-15T12:22:36;99392.34;;;0.88;100.00
163;BME280;3946;48.958;8.284;2024-01-15T12:25:22;99398.34;;;0.87;100.00
163;BME280;3946;48.958;8.284;2024-01-15T12:28:07;99394.00;;;0.89;100.00
163;BME280;3946;48.958;8.284;2024-01-15T12:30:53;99388.13;;;0.87;100.00
163;BME280;3946;48.958;8.284;2024-01-15T12:33:42;99392.56;;;1.04;100.00
163;BME280;3946;48.958;8.284;2024-01-15T12:36:30;99392.56;;;1.04;100.00
163;BME280;3946;48.958;8.284;2024-01-15T12:39:17;99381.81;;;1.18;100.00
163;BME280;3946;48.958;8.284;2024-01-15T12:42:03;99373.72;;;1.28;100.00
163;BME280;3946;48.958;8.284;2024-01-15T12:44:49;99383.47;;;1.39;100.00
163;BME280;3946;48.958;8.284;2024-01-15T12:47:36;99378.44;;;1.37;100.00
163;BME280;3946;48.958;8.284;2024-01-15T12:50:23;99383.97;;;1.47;100.00
163;BME280;3946;48.958;8.284;2024-01-15T12:53:09;99381.81;;;1.38;100.00
163;BME280;3946;48.958;8.284;2024-01-15T12:55:56;99386.50;;;1.47;100.00
163;BME280;3946;48.958;8.284;2024-01-15T12:58:41;99391.31;;;1.55;100.00
163;BME280;3946;48.958;8.284;2024-01-15T13:01:26;99384.28;;;1.60;100.00
163;BME280;3946;48.958;8.284;2024-01-15T13:04:21;99392.38;;;1.69;100.00
163;BME280;3946;48.958;8.284;2024-01-15T13:07:07;99382.22;;;1.68;100.00
163;BME280;3946;48.958;8.284;2024-01-15T13:09:52;99394.88;;;1.71;100.00
163;BME280;3946;48.958;8.284;2024-01-15T13:12:40;99389.56;;;1.75;100.00
163;BME280;3946;48.958;8.284;2024-01-15T13:15:25;99385.84;;;1.83;100.00
163;BME280;3946;48.958;8.284;2024-01-15T13:18:10;99394.56;;;1.79;100.00
163;BME280;3946;48.958;8.284;2024-01-15T13:20:56;99402.47;;;1.72;100.00
163;BME280;3946;48.958;8.284;2024-01-15T13:23:42;99404.94;;;1.74;100.00
163;BME280;3946;48.958;8.284;2024-01-15T13:26:27;99401.38;;;1.78;100.00
163;BME280;3946;48.958;8.284;2024-01-15T13:29:14;99403.66;;;1.84;100.00
163;BME280;3946;48.958;8.284;2024-01-15T13:32:00;99407.31;;;1.79;100.00
163;BME280;3946;48.958;8.284;2024-01-15T13:34:45;99403.41;;;1.70;100.00
163;BME280;3946;48.958;8.284;2024-01-15T13:37:30;99399.09;;;1.52;100.00
163;BME280;3946;48.958;8.284;2024-01-15T13:40:16;99411.31;;;1.64;100.00
163;BME280;3946;48.958;8.284;2024-01-15T13:43:03;99409.53;;;1.66;100.00
163;BME280;3946;48.958;8.284;2024-01-15T13:45:53;99419.84;;;1.44;100.00
163;BME280;3946;48.958;8.284;2024-01-15T13:48:38;99398.72;;;1.40;100.00
163;BME280;3946;48.958;8.284;2024-01-15T13:51:24;99424.97;;;1.63;100.00
163;BME280;3946;48.958;8.284;2024-01-15T13:54:09;99417.06;;;1.69;100.00
163;BME280;3946;48.958;8.284;2024-01-15T13:56:54;99403.81;;;1.61;100.00
163;BME280;3946;48.958;8.284;2024-01-15T13:59:40;99416.59;;;1.80;100.00
163;BME280;3946;48.958;8.284;2024-01-15T14:02:27;99424.72;;;1.69;100.00
163;BME280;3946;48.958;8.284;2024-01-15T14:05:12;99429.00;;;1.68;100.00
163;BME280;3946;48.958;8.284;2024-01-15T14:07:58;99427.88;;;1.75;100.00
163;BME280;3946;48.958;8.284;2024-01-15T14:10:44;99431.88;;;1.81;100.00
163;BME280;3946;48.958;8.284;2024-01-15T14:13:29;99444.38;;;1.87;100.00
163;BME280;3946;48.958;8.284;2024-01-15T14:16:15;99439.69;;;1.97;100.00
163;BME280;3946;48.958;8.284;2024-01-15T14:19:01;99442.75;;;2.05;100.00
163;BME280;3946;48.958;8.284;2024-01-15T14:21:47;99450.56;;;2.02;100.00
163;BME280;3946;48.958;8.284;2024-01-15T14:24:32;99441.69;;;2.10;100.00
163;BME280;3946;48.958;8.284;2024-01-15T14:27:18;99447.53;;;2.31;100.00
163;BME280;3946;48.958;8.284;2024-01-15T14:30:04;99455.47;;;2.44;100.00
163;BME280;3946;48.958;8.284;2024-01-15T14:32:52;99454.88;;;2.39;100.00
163;BME280;3946;48.958;8.284;2024-01-15T14:35:39;99462.41;;;2.42;100.00
163;BME280;3946;48.958;8.284;2024-01-15T14:38:24;99467.56;;;2.22;100.00
163;BME280;3946;48.958;8.284;2024-01-15T14:41:09;99474.19;;;2.07;100.00
163;BME280;3946;48.958;8.284;2024-01-15T14:43:55;99485.94;;;2.11;100.00
163;BME280;3946;48.958;8.284;2024-01-15T14:46:41;99497.31;;;2.04;100.00
163;BME280;3946;48.958;8.284;2024-01-15T14:49:26;99511.78;;;1.83;100.00
163;BME280;3946;48.958;8.284;2024-01-15T14:52:13;99517.22;;;1.75;100.00
163;BME280;3946;48.958;8.284;2024-01-15T14:54:58;99523.22;;;1.74;100.00
163;BME280;3946;48.958;8.284;2024-01-15T14:57:44;99523.41;;;1.70;100.00
163;BME280;3946;48.958;8.284;2024-01-15T15:00:29;99527.31;;;1.58;100.00
163;BME280;3946;48.958;8.284;2024-01-15T15:03:14;99536.63;;;1.59;100.00
163;BME280;3946;48.958;8.284;2024-01-15T15:06:00;99534.25;;;1.55;100.00
163;BME280;3946;48.958;8.284;2024-01-15T15:08:46;99546.94;;;1.56;100.00
163;BME280;3946;48.958;8.284;2024-01-15T15:11:32;99545.41;;;1.52;100.00
163;BME280;3946;48.958;8.284;2024-01-15T15:14:17;99536.91;;;1.52;100.00